createdAt,value
2018-11-28T05:23:21.589Z,320.07
2018-11-28T05:25:50.131Z,314.23
2018-11-28T05:28:18.516Z,203.20
2018-11-28T05:30:47.658Z,264.07
2018-11-28T05:33:16.152Z,302.37
2018-11-28T05:35:45.004Z,193.73
2018-11-28T05:38:14.611Z,212.10
2018-11-28T05:40:44.091Z,298.97
2018-11-28T05:43:12.738Z,221.40
2018-11-28T05:45:41.353Z,227.63
2018-11-28T05:48:10.068Z,224.93
2018-11-28T05:50:38.898Z,177.43
2018-11-28T05:53:07.850Z,212.90
2018-11-28T05:55:36.643Z,202.00
2018-11-28T05:58:06.143Z,167.77
2018-11-28T06:00:39.742Z,156.33
2018-11-28T06:03:09.573Z,134.13
2018-11-28T06:05:38.291Z,121.50
2018-11-28T06:08:07.929Z,104.17
2018-11-28T06:10:36.944Z,134.37
2018-11-28T06:13:05.358Z,120.90
2018-11-28T06:15:33.751Z,106.03
2018-11-28T06:18:02.532Z,111.33
2018-11-28T06:20:31.302Z,100.57
2018-11-28T06:22:59.936Z,89.60
2018-11-28T06:25:28.730Z,82.27
2018-11-28T06:27:57.131Z,87.93
2018-11-28T06:30:25.540Z,106.10
2018-11-28T06:32:54.340Z,75.87
2018-11-28T06:35:22.704Z,68.83
2018-11-28T06:37:51.479Z,81.30
2018-11-28T06:40:23.978Z,77.17
2018-11-28T06:42:49.011Z,69.67
2018-11-28T06:45:20.017Z,70.30
2018-11-28T06:47:48.790Z,90.33
2018-11-28T06:50:18.201Z,67.73
2018-11-28T06:52:48.215Z,72.97
2018-11-28T06:55:18.064Z,60.07
2018-11-28T06:57:46.791Z,73.87
2018-11-28T07:00:20.317Z,68.63
2018-11-28T07:02:50.981Z,68.20
2018-11-28T07:05:19.992Z,70.17
2018-11-28T07:07:48.620Z,64.80
2018-11-28T07:10:18.400Z,63.97
2018-11-28T07:12:47.258Z,54.47
2018-11-28T07:15:17.782Z,59.27
2018-11-28T07:17:46.497Z,57.77
2018-11-28T07:20:16.098Z,55.13
2018-11-28T07:22:44.500Z,60.67
2018-11-28T07:25:16.641Z,57.80
2018-11-28T07:27:46.174Z,62.03
2018-11-28T07:30:20.027Z,54.87
2018-11-28T07:32:49.631Z,57.57
2018-11-28T07:35:18.161Z,56.47
2018-11-28T07:37:46.588Z,57.03
2018-11-28T07:40:19.465Z,54.87
2018-11-28T07:43:00.032Z,53.60
2018-11-28T07:45:28.462Z,53.97
2018-11-28T07:47:57.106Z,54.77
2018-11-28T07:50:25.808Z,56.23
2018-11-28T07:52:54.629Z,54.90
2018-11-28T07:55:23.018Z,53.30
2018-11-28T07:57:51.849Z,56.27
2018-11-28T08:00:20.861Z,54.67
2018-11-28T08:02:49.232Z,51.60
2018-11-28T08:05:17.902Z,52.50
2018-11-28T08:07:46.342Z,48.53
2018-11-28T08:10:28.104Z,47.90
2018-11-28T08:12:58.087Z,48.83
2018-11-28T08:15:26.519Z,50.90
2018-11-28T08:17:55.822Z,49.80
2018-11-28T08:20:24.214Z,49.80
2018-11-28T08:22:52.612Z,47.60
2018-11-28T08:25:27.481Z,51.73
2018-11-28T08:27:51.179Z,46.03
2018-11-28T08:30:23.861Z,52.27
2018-11-28T08:32:52.492Z,47.83
2018-11-28T08:35:21.557Z,55.20
2018-11-28T08:37:50.605Z,53.03
2018-11-28T08:40:22.857Z,48.27
2018-11-28T08:42:51.292Z,50.80
2018-11-28T08:45:21.163Z,53.20
2018-11-28T08:47:51.352Z,49.93
2018-11-28T08:50:28.022Z,48.80
2018-11-28T08:52:56.730Z,47.83
2018-11-28T08:55:25.116Z,49.20
2018-11-28T08:57:53.530Z,48.63
2018-11-28T09:00:23.915Z,56.50
2018-11-28T09:02:53.558Z,65.77
2018-11-28T09:05:22.780Z,52.77
2018-11-28T09:07:51.914Z,51.73
2018-11-28T09:10:20.991Z,52.60
2018-11-28T09:12:50.408Z,44.73
2018-11-28T09:15:21.128Z,51.20
2018-11-28T09:17:49.742Z,50.67
2018-11-28T09:20:18.681Z,46.93
2018-11-28T09:22:47.978Z,49.50
2018-11-28T09:25:17.375Z,49.77
2018-11-28T09:27:48.975Z,48.27
2018-11-28T09:30:19.568Z,47.10
2018-11-28T09:32:49.175Z,46.30
2018-11-28T09:35:17.902Z,43.93
2018-11-28T09:37:46.357Z,46.53
2018-11-28T09:40:19.871Z,47.93
2018-11-28T09:42:49.159Z,46.33
2018-11-28T09:45:18.518Z,46.27
2018-11-28T09:47:47.178Z,50.20
2018-11-28T09:50:20.124Z,46.90
2018-11-28T09:52:48.777Z,47.37
2018-11-28T09:55:19.002Z,50.67
2018-11-28T09:57:47.411Z,57.07
2018-11-28T10:00:18.573Z,88.83
2018-11-28T10:02:47.903Z,68.73
2018-11-28T10:05:21.036Z,60.60
2018-11-28T10:07:49.476Z,61.63
2018-11-28T10:10:18.231Z,63.03
2018-11-28T10:12:47.534Z,51.20
2018-11-28T10:15:19.675Z,50.07
2018-11-28T10:17:48.288Z,51.77
2018-11-28T10:20:17.629Z,47.93
2018-11-28T10:22:47.018Z,49.83
2018-11-28T10:25:17.115Z,46.53
2018-11-28T10:27:48.911Z,49.13
2018-11-28T10:30:19.565Z,49.30
2018-11-28T10:32:49.164Z,50.17
2018-11-28T10:35:17.763Z,51.10
2018-11-28T10:37:46.211Z,52.43
2018-11-28T10:40:19.056Z,52.03
2018-11-28T10:42:50.212Z,52.13
2018-11-28T10:45:21.102Z,51.10
2018-11-28T10:47:49.746Z,53.57
2018-11-28T10:50:19.028Z,52.13
2018-11-28T10:52:47.409Z,50.90
2018-11-28T10:55:18.667Z,47.03
2018-11-28T10:57:47.288Z,52.60
2018-11-28T11:00:24.040Z,50.67
2018-11-28T11:02:57.965Z,52.83
2018-11-28T11:05:31.759Z,54.77
2018-11-28T11:08:05.306Z,51.37
2018-11-28T11:10:39.022Z,52.37
2018-11-28T11:13:12.832Z,48.30
2018-11-28T11:15:42.044Z,55.77
2018-11-28T11:18:12.062Z,58.27
2018-11-28T11:20:40.490Z,57.10
2018-11-28T11:23:09.306Z,62.80
2018-11-28T11:25:38.174Z,54.13
2018-11-28T11:28:07.400Z,58.77
2018-11-28T11:30:36.175Z,54.33
2018-11-28T11:33:05.062Z,53.07
2018-11-28T11:35:33.744Z,56.17
2018-11-28T11:38:02.678Z,59.20
2018-11-28T11:40:31.492Z,55.63
2018-11-28T11:42:59.880Z,52.97
2018-11-28T11:45:28.417Z,57.67
2018-11-28T11:47:56.838Z,60.17
2018-11-28T11:50:25.564Z,54.27
2018-11-28T11:52:54.221Z,57.13
2018-11-28T11:55:22.624Z,52.80
2018-11-28T11:57:51.477Z,57.90
2018-11-28T12:00:25.406Z,52.90
2018-11-28T12:02:59.136Z,58.00
2018-11-28T12:05:27.514Z,52.27
2018-11-28T12:07:56.192Z,57.73
2018-11-28T12:10:24.894Z,53.27
2018-11-28T12:12:53.515Z,56.43
2018-11-28T12:15:22.544Z,54.37
2018-11-28T12:17:51.544Z,54.53
2018-11-28T12:20:37.423Z,49.77
2018-11-28T12:23:06.473Z,55.43
2018-11-28T12:25:34.892Z,53.13
2018-11-28T12:28:03.315Z,52.10
2018-11-28T12:30:31.760Z,51.10
2018-11-28T12:33:00.957Z,51.03
2018-11-28T12:35:29.488Z,59.03
2018-11-28T12:38:00.649Z,62.97
2018-11-28T12:40:31.385Z,64.83
2018-11-28T12:43:00.614Z,58.37
2018-11-28T12:45:29.434Z,62.40
2018-11-28T12:47:57.915Z,73.47
2018-11-28T12:50:27.848Z,65.20
2018-11-28T12:52:57.754Z,64.33
2018-11-28T12:55:26.191Z,64.03
2018-11-28T12:57:55.939Z,74.73
2018-11-28T13:00:25.576Z,65.47
2018-11-28T13:02:54.076Z,67.73
2018-11-28T13:05:24.233Z,66.17
2018-11-28T13:07:52.973Z,63.13
2018-11-28T13:10:28.923Z,63.50
2018-11-28T13:12:57.980Z,64.60
2018-11-28T13:15:27.285Z,66.47
2018-11-28T13:17:55.917Z,71.13
2018-11-28T13:20:24.370Z,71.80
2018-11-28T13:22:54.370Z,68.37
2018-11-28T13:25:26.891Z,68.60
2018-11-28T13:27:56.000Z,74.57
2018-11-28T13:30:25.409Z,73.10
2018-11-28T13:32:54.838Z,73.23
2018-11-28T13:35:26.805Z,71.27
2018-11-28T13:38:04.577Z,69.37
2018-11-28T13:40:33.181Z,70.40
2018-11-28T13:43:01.843Z,70.77
2018-11-28T13:45:32.075Z,81.87
2018-11-28T13:48:00.725Z,75.97
2018-11-28T13:50:29.275Z,78.17
2018-11-28T13:52:58.907Z,73.50
2018-11-28T13:58:31.678Z,82.07
2018-11-28T14:01:00.085Z,88.43
2018-11-28T14:03:29.142Z,91.43
2018-11-28T14:05:58.018Z,85.00
2018-11-28T14:08:26.404Z,79.63
2018-11-28T14:10:55.102Z,81.83
2018-11-28T14:13:23.828Z,83.60
2018-11-28T14:15:52.594Z,90.37
2018-11-28T14:18:21.648Z,85.33
2018-11-28T14:20:50.211Z,83.03
2018-11-28T14:23:18.899Z,89.40
2018-11-28T14:25:47.835Z,86.20
2018-11-28T14:28:16.556Z,93.50
2018-11-28T14:30:46.069Z,85.67
2018-11-28T14:33:14.476Z,106.13
2018-11-28T14:35:43.277Z,86.93
2018-11-28T14:38:11.991Z,87.23
2018-11-28T14:40:41.238Z,92.30
2018-11-28T14:43:09.968Z,97.07
2018-11-28T14:45:38.398Z,96.77
2018-11-28T14:48:06.850Z,98.93
2018-11-28T14:50:35.564Z,108.90
2018-11-28T14:53:04.374Z,108.30
2018-11-28T14:55:35.857Z,103.07
2018-11-28T14:58:04.795Z,106.67
2018-11-28T15:00:33.831Z,100.13
2018-11-28T15:03:13.538Z,102.90
2018-11-28T15:05:51.193Z,101.33
2018-11-28T15:08:19.797Z,96.03
2018-11-28T15:10:54.334Z,106.30
2018-11-28T15:13:23.084Z,111.30
2018-11-28T15:15:52.067Z,92.10
2018-11-28T15:18:20.492Z,86.80
2018-11-28T15:20:49.180Z,90.03
2018-11-28T15:23:17.839Z,79.77
2018-11-28T15:25:46.434Z,75.10
2018-11-28T15:28:15.189Z,71.10
2018-11-28T15:30:44.162Z,76.70
2018-11-28T15:33:12.588Z,75.47
2018-11-28T15:35:41.036Z,84.17
2018-11-28T15:38:09.648Z,79.80
2018-11-28T15:40:38.448Z,80.93
2018-11-28T15:43:06.902Z,86.63
2018-11-28T15:45:35.951Z,83.47
2018-11-28T15:48:04.358Z,79.50
2018-11-28T15:50:32.768Z,71.97
2018-11-28T15:53:01.724Z,78.27
2018-11-28T15:55:30.186Z,82.73
2018-11-28T15:57:58.772Z,84.37
2018-11-28T16:00:27.486Z,83.30
2018-11-28T16:02:56.474Z,84.13
2018-11-28T16:05:24.875Z,80.80
2018-11-28T16:07:53.351Z,86.97
2018-11-28T16:10:27.051Z,99.40
2018-11-28T16:12:55.498Z,84.57
2018-11-28T16:15:33.311Z,88.93
2018-11-28T16:18:02.120Z,87.70
2018-11-28T16:20:30.825Z,93.37
2018-11-28T16:23:04.029Z,81.20
2018-11-28T16:25:28.349Z,77.90
2018-11-28T16:27:56.831Z,78.83
2018-11-28T16:30:25.491Z,80.13
2018-11-28T16:32:54.179Z,80.13
2018-11-28T16:35:22.907Z,79.97
2018-11-28T16:37:51.693Z,78.70
2018-11-28T16:40:20.107Z,87.43
2018-11-28T16:42:48.655Z,76.87
2018-11-28T16:45:20.594Z,83.07
2018-11-28T16:47:49.657Z,71.83
2018-11-28T16:50:18.839Z,73.13
2018-11-28T16:52:48.038Z,71.43
2018-11-28T16:55:17.944Z,75.80
2018-11-28T16:57:48.101Z,74.47
2018-11-28T17:00:19.313Z,79.57
2018-11-28T17:02:47.994Z,78.77
2018-11-28T17:05:18.789Z,74.43
2018-11-28T17:07:47.791Z,78.27
2018-11-28T17:10:24.136Z,73.13
2018-11-28T17:12:53.098Z,74.27
2018-11-28T17:15:21.845Z,71.40
2018-11-28T17:17:50.595Z,74.30
2018-11-28T17:20:21.412Z,79.13
2018-11-28T17:22:51.243Z,75.33
2018-11-28T17:25:24.030Z,81.97
2018-11-28T17:27:52.650Z,76.33
2018-11-28T17:30:25.714Z,73.77
2018-11-28T17:32:54.672Z,77.47
2018-11-28T17:35:22.834Z,73.10
2018-11-28T17:37:51.806Z,78.17
2018-11-28T17:40:22.998Z,83.67
2018-11-28T17:42:52.574Z,83.37
2018-11-28T17:45:21.475Z,81.13
2018-11-28T17:47:50.306Z,80.13
2018-11-28T17:50:24.143Z,76.47
2018-11-28T17:53:25.839Z,79.63
2018-11-28T17:55:57.438Z,82.37
2018-11-28T17:58:26.023Z,83.13
2018-11-28T18:00:54.751Z,81.90
2018-11-28T18:03:23.679Z,74.57
2018-11-28T18:05:52.709Z,75.83
2018-11-28T18:08:21.505Z,72.23
2018-11-28T18:10:49.921Z,76.70
2018-11-28T18:13:19.429Z,72.43
2018-11-28T18:15:52.052Z,75.83
2018-11-28T18:18:23.238Z,76.70
2018-11-28T18:20:51.873Z,78.57
2018-11-28T18:23:20.329Z,78.90
2018-11-28T18:25:48.920Z,81.70
2018-11-28T18:28:17.385Z,78.60
2018-11-28T18:30:45.967Z,74.37
2018-11-28T18:33:15.111Z,82.13
2018-11-28T18:35:44.982Z,83.93
2018-11-28T18:38:13.504Z,78.53
2018-11-28T18:40:41.961Z,84.97
2018-11-28T18:43:11.157Z,84.00
2018-11-28T18:45:46.253Z,89.90
2018-11-28T18:48:14.660Z,87.33
2018-11-28T18:50:43.432Z,80.90
2018-11-28T18:53:11.861Z,72.80
2018-11-28T18:55:40.296Z,71.23
2018-11-28T18:58:10.346Z,73.17
2018-11-28T19:00:39.263Z,79.90
2018-11-28T19:03:08.460Z,76.73
2018-11-28T19:05:37.180Z,79.93
2018-11-28T19:08:06.655Z,73.00
2018-11-28T19:10:35.671Z,69.23
2018-11-28T19:13:04.920Z,64.87
2018-11-28T19:15:33.411Z,65.83
2018-11-28T19:18:01.838Z,69.03
2018-11-28T19:20:30.316Z,61.07
2018-11-28T19:22:58.759Z,64.10
2018-11-28T19:25:28.580Z,61.70
2018-11-28T19:27:57.403Z,65.53
2018-11-28T19:30:31.661Z,68.60
2018-11-28T19:33:00.331Z,70.63
2018-11-28T19:35:35.783Z,69.80
2018-11-28T19:38:05.413Z,74.30
2018-11-28T19:40:41.071Z,69.73
2018-11-28T19:43:10.139Z,72.83
2018-11-28T19:45:39.101Z,73.40
2018-11-28T19:48:08.274Z,72.77
2018-11-28T19:50:37.382Z,72.00
2018-11-28T19:53:07.609Z,71.07
2018-11-28T19:55:36.103Z,71.90
2018-11-28T19:58:04.707Z,68.63
2018-11-28T20:00:33.280Z,73.80
2018-11-28T20:03:01.920Z,70.90
2018-11-28T20:05:30.402Z,68.13
2018-11-28T20:07:58.962Z,68.07
2018-11-28T20:10:27.632Z,70.37
2018-11-28T20:12:56.515Z,72.87
2018-11-28T20:15:27.616Z,69.63
2018-11-28T20:17:56.684Z,67.80
2018-11-28T20:20:25.233Z,73.53
2018-11-28T20:22:53.749Z,70.13
2018-11-28T20:25:23.833Z,68.23
2018-11-28T20:27:56.717Z,74.63
2018-11-28T20:30:27.328Z,72.57
2018-11-28T20:32:55.987Z,75.67
2018-11-28T20:35:24.474Z,74.10
2018-11-28T20:37:53.164Z,70.80
2018-11-28T20:40:21.849Z,76.50
2018-11-28T20:42:52.030Z,69.33
2018-11-28T20:45:20.476Z,77.17
2018-11-28T20:47:49.464Z,79.57
2018-11-28T20:50:23.003Z,73.90
2018-11-28T20:52:55.013Z,71.67
2018-11-28T20:55:21.732Z,76.07
2018-11-28T20:57:50.485Z,75.73
2018-11-28T21:00:21.219Z,76.40
2018-11-28T21:02:50.160Z,69.13
2018-11-28T21:05:18.670Z,67.23
2018-11-28T21:07:47.283Z,68.47
2018-11-28T21:10:21.893Z,77.67
2018-11-28T21:12:50.384Z,76.10
2018-11-28T21:15:18.855Z,73.97
2018-11-28T21:17:48.107Z,71.57
2018-11-28T21:20:18.057Z,77.87
2018-11-28T21:23:08.194Z,78.97
2018-11-28T21:25:37.541Z,79.13
2018-11-28T21:28:06.072Z,68.20
2018-11-28T21:30:34.526Z,70.37
2018-11-28T21:33:03.254Z,64.83
2018-11-28T21:35:35.670Z,69.10
2018-11-28T21:38:04.317Z,67.67
2018-11-28T21:40:32.824Z,67.53
2018-11-28T21:43:01.683Z,67.93
2018-11-28T21:45:30.126Z,73.63
2018-11-28T21:47:58.744Z,84.80
2018-11-28T21:50:28.173Z,79.80
2018-11-28T21:52:56.695Z,71.70
2018-11-28T21:55:25.806Z,66.40
2018-11-28T21:57:54.273Z,65.70
2018-11-28T22:00:26.185Z,69.40
2018-11-28T22:02:54.918Z,72.17
2018-11-28T22:05:24.305Z,72.50
2018-11-28T22:07:53.115Z,72.47
2018-11-28T22:10:22.945Z,65.23
2018-11-28T22:12:51.764Z,61.87
2018-11-28T22:15:20.405Z,61.40
2018-11-28T22:17:51.280Z,61.70
2018-11-28T22:20:20.091Z,63.90
2018-11-28T22:22:48.559Z,64.60
2018-11-28T22:25:26.271Z,61.47
2018-11-28T22:27:55.704Z,65.50
2018-11-28T22:30:29.790Z,57.80
